Terminal Aerodrome Forecast
Issued by NWS

Home | Current Version | Previous Version | Text Only | Print | Product List | Glossary On
Versions: 1 2 3 4 5 6 7 8 9 10 11 12 13 14 15 16
000
FTUS41 KGYX 031725
TAFLEB
TAF
KLEB 031725Z 0318/0418 25005KT P6SM VCSH BKN050
      TEMPO 0318/0322 5SM -SHRA BKN035
     FM032300 00000KT P6SM FEW100
     FM041500 22008KT P6SM FEW250=

USA.gov is the U.S. government's official web portal to all federal, state and local government web resources and services.